sensor_id;sensor_type;location;lat;lon;timestamp;P1;durP1;ratioP1;P2;durP2;ratioP2
15281;SDS011;7742;44.320;19.820;2023-12-20T00:01:33;13.70;;;13.10;;
15281;SDS011;7742;44.320;19.820;2023-12-20T00:04:00;14.43;;;13.73;;
15281;SDS011;7742;44.320;19.820;2023-12-20T00:06:27;13.57;;;12.97;;
15281;SDS011;7742;44.320;19.820;2023-12-20T00:09:01;14.43;;;13.73;;
15281;SDS011;7742;44.320;19.820;2023-12-20T00:11:37;13.47;;;12.80;;
15281;SDS011;7742;44.320;19.820;2023-12-20T00:14:04;13.20;;;12.60;;
15281;SDS011;7742;44.320;19.820;2023-12-20T00:16:31;12.63;;;12.03;;
15281;SDS011;7742;44.320;19.820;2023-12-20T00:18:58;13.60;;;12.90;;
15281;SDS011;7742;44.320;19.820;2023-12-20T00:21:25;14.70;;;14.00;;
15281;SDS011;7742;44.320;19.820;2023-12-20T00:23:52;13.10;;;12.50;;
15281;SDS011;7742;44.320;19.820;2023-12-20T00:26:37;12.87;;;12.27;;
15281;SDS011;7742;44.320;19.820;2023-12-20T00:29:04;12.77;;;12.17;;
15281;SDS011;7742;44.320;19.820;2023-12-20T00:31:32;13.53;;;12.83;;
15281;SDS011;7742;44.320;19.820;2023-12-20T00:33:59;13.80;;;13.20;;
15281;SDS011;7742;44.320;19.820;2023-12-20T00:36:26;14.40;;;13.80;;
15281;SDS011;7742;44.320;19.820;2023-12-20T00:38:53;14.53;;;13.83;;
15281;SDS011;7742;44.320;19.820;2023-12-20T00:41:19;13.43;;;12.83;;
15281;SDS011;7742;44.320;19.820;2023-12-20T00:43:48;14.40;;;13.70;;
15281;SDS011;7742;44.320;19.820;2023-12-20T00:46:15;13.47;;;12.87;;
15281;SDS011;7742;44.320;19.820;2023-12-20T00:48:42;12.97;;;12.37;;
15281;SDS011;7742;44.320;19.820;2023-12-20T00:51:12;12.87;;;12.37;;
15281;SDS011;7742;44.320;19.820;2023-12-20T00:53:42;12.63;;;12.10;;
15281;SDS011;7742;44.320;19.820;2023-12-20T00:56:09;13.17;;;12.57;;
15281;SDS011;7742;44.320;19.820;2023-12-20T00:58:36;13.97;;;13.30;;
15281;SDS011;7742;44.320;19.820;2023-12-20T01:01:05;12.47;;;11.90;;
15281;SDS011;7742;44.320;19.820;2023-12-20T01:03:45;13.33;;;12.73;;
15281;SDS011;7742;44.320;19.820;2023-12-20T01:06:16;12.73;;;12.13;;
15281;SDS011;7742;44.320;19.820;2023-12-20T01:08:43;13.33;;;12.73;;
15281;SDS011;7742;44.320;19.820;2023-12-20T01:11:10;13.40;;;12.80;;
15281;SDS011;7742;44.320;19.820;2023-12-20T01:13:38;13.50;;;12.90;;
15281;SDS011;7742;44.320;19.820;2023-12-20T01:16:10;12.17;;;11.67;;
15281;SDS011;7742;44.320;19.820;2023-12-20T01:18:37;12.63;;;12.03;;
15281;SDS011;7742;44.320;19.820;2023-12-20T01:21:04;14.20;;;13.57;;
15281;SDS011;7742;44.320;19.820;2023-12-20T01:23:34;14.23;;;13.60;;
15281;SDS011;7742;44.320;19.820;2023-12-20T01:26:26;13.93;;;13.33;;
15281;SDS011;7742;44.320;19.820;2023-12-20T01:28:59;13.47;;;12.87;;
15281;SDS011;7742;44.320;19.820;2023-12-20T01:31:28;13.67;;;13.07;;
15281;SDS011;7742;44.320;19.820;2023-12-20T01:33:55;12.83;;;12.23;;
15281;SDS011;7742;44.320;19.820;2023-12-20T01:36:21;12.23;;;11.73;;
15281;SDS011;7742;44.320;19.820;2023-12-20T01:38:48;13.40;;;12.80;;
15281;SDS011;7742;44.320;19.820;2023-12-20T01:41:15;14.03;;;13.33;;
15281;SDS011;7742;44.320;19.820;2023-12-20T01:43:42;12.50;;;11.90;;
15281;SDS011;7742;44.320;19.820;2023-12-20T01:46:09;14.03;;;13.43;;
15281;SDS011;7742;44.320;19.820;2023-12-20T01:48:38;13.17;;;12.57;;
15281;SDS011;7742;44.320;19.820;2023-12-20T01:51:05;12.63;;;12.03;;
15281;SDS011;7742;44.320;19.820;2023-12-20T01:53:32;12.40;;;11.90;;
15281;SDS011;7742;44.320;19.820;2023-12-20T01:55:59;12.47;;;11.93;;
15281;SDS011;7742;44.320;19.820;2023-12-20T01:58:27;12.40;;;11.90;;
15281;SDS011;7742;44.320;19.820;2023-12-20T02:00:54;12.87;;;12.13;;
15281;SDS011;7742;44.320;19.820;2023-12-20T02:03:21;13.07;;;12.47;;
15281;SDS011;7742;44.320;19.820;2023-12-20T02:05:49;13.50;;;12.90;;
15281;SDS011;7742;44.320;19.820;2023-12-20T02:08:17;12.90;;;12.30;;
15281;SDS011;7742;44.320;19.820;2023-12-20T02:10:43;13.60;;;13.00;;
15281;SDS011;7742;44.320;19.820;2023-12-20T02:13:10;14.47;;;13.73;;
15281;SDS011;7742;44.320;19.820;2023-12-20T02:15:39;13.47;;;12.87;;
15281;SDS011;7742;44.320;19.820;2023-12-20T02:18:07;12.83;;;12.13;;
15281;SDS011;7742;44.320;19.820;2023-12-20T02:20:34;12.70;;;12.10;;
15281;SDS011;7742;44.320;19.820;2023-12-20T02:23:03;13.20;;;12.50;;
15281;SDS011;7742;44.320;19.820;2023-12-20T02:25:30;12.50;;;11.90;;
15281;SDS011;7742;44.320;19.820;2023-12-20T02:27:56;12.17;;;11.60;;
15281;SDS011;7742;44.320;19.820;2023-12-20T02:30:23;13.57;;;12.90;;
15281;SDS011;7742;44.320;19.820;2023-12-20T02:32:50;12.87;;;12.13;;
15281;SDS011;7742;44.320;19.820;2023-12-20T02:35:18;13.90;;;13.30;;
15281;SDS011;7742;44.320;19.820;2023-12-20T02:37:44;13.50;;;12.90;;
15281;SDS011;7742;44.320;19.820;2023-12-20T02:40:13;13.30;;;12.70;;
15281;SDS011;7742;44.320;19.820;2023-12-20T02:42:40;13.50;;;12.90;;
15281;SDS011;7742;44.320;19.820;2023-12-20T02:45:07;13.03;;;12.47;;
15281;SDS011;7742;44.320;19.820;2023-12-20T02:47:34;13.50;;;12.90;;
15281;SDS011;7742;44.320;19.820;2023-12-20T02:50:01;13.13;;;12.53;;
15281;SDS011;7742;44.320;19.820;2023-12-20T02:52:28;11.60;;;11.10;;
15281;SDS011;7742;44.320;19.820;2023-12-20T02:54:55;11.57;;;11.07;;
15281;SDS011;7742;44.320;19.820;2023-12-20T02:57:23;11.87;;;11.37;;
15281;SDS011;7742;44.320;19.820;2023-12-20T02:59:50;12.43;;;11.83;;
15281;SDS011;7742;44.320;19.820;2023-12-20T03:02:17;13.40;;;12.80;;
15281;SDS011;7742;44.320;19.820;2023-12-20T03:04:44;13.43;;;12.83;;
15281;SDS011;7742;44.320;19.820;2023-12-20T03:07:11;13.63;;;13.03;;
15281;SDS011;7742;44.320;19.820;2023-12-20T03:09:38;13.67;;;13.07;;
15281;SDS011;7742;44.320;19.820;2023-12-20T03:12:05;12.13;;;11.63;;
15281;SDS011;7742;44.320;19.820;2023-12-20T03:14:33;12.30;;;11.80;;
15281;SDS011;7742;44.320;19.820;2023-12-20T03:17:00;13.27;;;12.67;;
15281;SDS011;7742;44.320;19.820;2023-12-20T03:19:27;12.93;;;12.33;;
15281;SDS011;7742;44.320;19.820;2023-12-20T03:21:54;12.77;;;12.17;;
15281;SDS011;7742;44.320;19.820;2023-12-20T03:24:21;13.73;;;13.13;;
15281;SDS011;7742;44.320;19.820;2023-12-20T03:26:48;12.73;;;12.13;;
15281;SDS011;7742;44.320;19.820;2023-12-20T03:29:15;12.70;;;12.10;;
15281;SDS011;7742;44.320;19.820;2023-12-20T03:31:43;13.83;;;13.13;;
15281;SDS011;7742;44.320;19.820;2023-12-20T03:34:13;13.73;;;13.03;;
15281;SDS011;7742;44.320;19.820;2023-12-20T03:36:54;14.03;;;13.33;;
15281;SDS011;7742;44.320;19.820;2023-12-20T03:39:21;14.70;;;13.90;;
15281;SDS011;7742;44.320;19.820;2023-12-20T03:41:48;14.00;;;13.30;;
15281;SDS011;7742;44.320;19.820;2023-12-20T03:44:15;14.70;;;14.00;;
15281;SDS011;7742;44.320;19.820;2023-12-20T03:46:44;12.43;;;11.77;;
15281;SDS011;7742;44.320;19.820;2023-12-20T03:49:11;13.63;;;12.97;;
15281;SDS011;7742;44.320;19.820;2023-12-20T03:51:38;13.77;;;13.07;;
15281;SDS011;7742;44.320;19.820;2023-12-20T03:54:05;13.60;;;13.00;;
15281;SDS011;7742;44.320;19.820;2023-12-20T03:56:32;13.63;;;13.03;;
15281;SDS011;7742;44.320;19.820;2023-12-20T03:58:59;11.97;;;11.47;;
15281;SDS011;7742;44.320;19.820;2023-12-20T04:01:26;12.73;;;12.13;;
15281;SDS011;7742;44.320;19.820;2023-12-20T04:03:55;12.53;;;12.00;;
15281;SDS011;7742;44.320;19.820;2023-12-20T04:06:21;12.77;;;12.17;;
15281;SDS011;7742;44.320;19.820;2023-12-20T04:08:48;13.27;;;12.67;;
15281;SDS011;7742;44.320;19.820;2023-12-20T04:11:26;13.33;;;12.73;;
15281;SDS011;7742;44.320;19.820;2023-12-20T04:13:53;13.00;;;12.40;;
15281;SDS011;7742;44.320;19.820;2023-12-20T04:16:20;13.70;;;13.00;;
15281;SDS011;7742;44.320;19.820;2023-12-20T04:19:01;12.20;;;11.50;;
15281;SDS011;7742;44.320;19.820;2023-12-20T04:21:29;12.40;;;11.70;;
15281;SDS011;7742;44.320;19.820;2023-12-20T04:24:03;11.30;;;10.70;;
15281;SDS011;7742;44.320;19.820;2023-12-20T04:26:35;10.60;;;10.10;;
15281;SDS011;7742;44.320;19.820;2023-12-20T04:29:11;12.30;;;11.80;;
15281;SDS011;7742;44.320;19.820;2023-12-20T04:31:45;12.53;;;11.93;;
15281;SDS011;7742;44.320;19.820;2023-12-20T04:34:14;12.03;;;11.43;;
15281;SDS011;7742;44.320;19.820;2023-12-20T04:36:41;13.67;;;13.07;;
15281;SDS011;7742;44.320;19.820;2023-12-20T04:39:08;11.57;;;11.07;;
15281;SDS011;7742;44.320;19.820;2023-12-20T04:41:35;12.07;;;11.57;;
15281;SDS011;7742;44.320;19.820;2023-12-20T04:44:04;12.60;;;12.07;;
15281;SDS011;7742;44.320;19.820;2023-12-20T04:46:31;11.77;;;11.27;;
15281;SDS011;7742;44.320;19.820;2023-12-20T04:48:58;13.50;;;12.90;;
15281;SDS011;7742;44.320;19.820;2023-12-20T04:51:26;11.97;;;11.47;;
15281;SDS011;7742;44.320;19.820;2023-12-20T04:53:53;12.23;;;11.73;;
15281;SDS011;7742;44.320;19.820;2023-12-20T04:56:22;11.67;;;11.07;;
15281;SDS011;7742;44.320;19.820;2023-12-20T04:58:53;12.00;;;11.50;;
15281;SDS011;7742;44.320;19.820;2023-12-20T05:01:19;12.77;;;12.17;;
15281;SDS011;7742;44.320;19.820;2023-12-20T05:03:51;11.20;;;10.70;;
15281;SDS011;7742;44.320;19.820;2023-12-20T05:09:56;11.23;;;10.73;;
15281;SDS011;7742;44.320;19.820;2023-12-20T05:12:23;11.63;;;11.13;;
15281;SDS011;7742;44.320;19.820;2023-12-20T05:14:51;10.50;;;10.10;;
15281;SDS011;7742;44.320;19.820;2023-12-20T05:17:18;9.87;;;9.47;;
15281;SDS011;7742;44.320;19.820;2023-12-20T05:19:45;10.07;;;9.67;;
15281;SDS011;7742;44.320;19.820;2023-12-20T05:22:12;10.20;;;9.80;;
15281;SDS011;7742;44.320;19.820;2023-12-20T05:24:39;12.03;;;11.53;;
15281;SDS011;7742;44.320;19.820;2023-12-20T05:27:08;11.57;;;11.07;;
15281;SDS011;7742;44.320;19.820;2023-12-20T05:29:35;12.23;;;11.73;;
15281;SDS011;7742;44.320;19.820;2023-12-20T05:32:02;17.13;;;15.83;;
15281;SDS011;7742;44.320;19.820;2023-12-20T05:34:30;12.67;;;11.97;;
15281;SDS011;7742;44.320;19.820;2023-12-20T05:36:57;12.83;;;12.23;;
15281;SDS011;7742;44.320;19.820;2023-12-20T05:39:24;12.53;;;11.83;;
15281;SDS011;7742;44.320;19.820;2023-12-20T05:41:51;12.50;;;11.80;;
15281;SDS011;7742;44.320;19.820;2023-12-20T05:44:19;11.87;;;11.37;;
15281;SDS011;7742;44.320;19.820;2023-12-20T05:46:46;11.67;;;11.07;;
15281;SDS011;7742;44.320;19.820;2023-12-20T05:49:13;10.83;;;10.33;;
15281;SDS011;7742;44.320;19.820;2023-12-20T05:51:40;12.00;;;11.40;;
15281;SDS011;7742;44.320;19.820;2023-12-20T05:54:07;11.63;;;11.13;;
15281;SDS011;7742;44.320;19.820;2023-12-20T05:56:34;11.50;;;11.00;;
15281;SDS011;7742;44.320;19.820;2023-12-20T05:59:01;12.30;;;11.70;;
15281;SDS011;7742;44.320;19.820;2023-12-20T06:04:11;13.60;;;12.90;;
15281;SDS011;7742;44.320;19.820;2023-12-20T06:06:40;13.53;;;12.93;;
15281;SDS011;7742;44.320;19.820;2023-12-20T06:09:07;11.47;;;10.97;;
15281;SDS011;7742;44.320;19.820;2023-12-20T06:11:34;12.17;;;11.57;;
15281;SDS011;7742;44.320;19.820;2023-12-20T06:14:06;11.90;;;11.30;;
15281;SDS011;7742;44.320;19.820;2023-12-20T06:16:32;13.00;;;12.40;;
15281;SDS011;7742;44.320;19.820;2023-12-20T06:18:59;13.43;;;12.73;;
15281;SDS011;7742;44.320;19.820;2023-12-20T06:21:28;14.13;;;13.43;;
15281;SDS011;7742;44.320;19.820;2023-12-20T06:23:56;13.20;;;12.50;;
15281;SDS011;7742;44.320;19.820;2023-12-20T06:26:23;11.73;;;11.17;;
15281;SDS011;7742;44.320;19.820;2023-12-20T06:28:50;11.17;;;10.67;;
15281;SDS011;7742;44.320;19.820;2023-12-20T06:31:17;10.97;;;10.43;;
15281;SDS011;7742;44.320;19.820;2023-12-20T06:33:44;11.80;;;11.30;;
15281;SDS011;7742;44.320;19.820;2023-12-20T06:36:11;11.00;;;10.60;;
15281;SDS011;7742;44.320;19.820;2023-12-20T06:38:51;10.50;;;10.10;;
15281;SDS011;7742;44.320;19.820;2023-12-20T06:41:19;12.50;;;11.80;;
15281;SDS011;7742;44.320;19.820;2023-12-20T06:50:16;12.67;;;12.07;;
15281;SDS011;7742;44.320;19.820;2023-12-20T06:52:43;11.50;;;10.80;;
15281;SDS011;7742;44.320;19.820;2023-12-20T06:55:10;10.90;;;10.40;;
15281;SDS011;7742;44.320;19.820;2023-12-20T06:57:37;11.80;;;11.20;;
15281;SDS011;7742;44.320;19.820;2023-12-20T07:00:04;13.00;;;12.40;;
15281;SDS011;7742;44.320;19.820;2023-12-20T07:02:31;13.20;;;12.50;;
15281;SDS011;7742;44.320;19.820;2023-12-20T07:04:58;13.20;;;12.60;;
15281;SDS011;7742;44.320;19.820;2023-12-20T07:07:26;12.83;;;12.23;;
15281;SDS011;7742;44.320;19.820;2023-12-20T07:09:53;12.47;;;11.87;;
15281;SDS011;7742;44.320;19.820;2023-12-20T07:12:20;13.83;;;13.03;;
15281;SDS011;7742;44.320;19.820;2023-12-20T07:14:47;13.47;;;12.80;;
15281;SDS011;7742;44.320;19.820;2023-12-20T07:17:14;13.93;;;13.33;;
15281;SDS011;7742;44.320;19.820;2023-12-20T07:19:40;13.57;;;12.87;;
15281;SDS011;7742;44.320;19.820;2023-12-20T07:22:07;14.17;;;13.47;;
15281;SDS011;7742;44.320;19.820;2023-12-20T07:24:36;17.40;;;16.47;;
15281;SDS011;7742;44.320;19.820;2023-12-20T07:27:03;15.73;;;14.93;;
15281;SDS011;7742;44.320;19.820;2023-12-20T07:29:30;13.03;;;12.43;;
15281;SDS011;7742;44.320;19.820;2023-12-20T07:31:57;13.90;;;13.20;;
15281;SDS011;7742;44.320;19.820;2023-12-20T07:34:24;11.50;;;11.00;;
15281;SDS011;7742;44.320;19.820;2023-12-20T07:36:50;11.13;;;10.63;;
15281;SDS011;7742;44.320;19.820;2023-12-20T07:39:17;11.10;;;10.60;;
15281;SDS011;7742;44.320;19.820;2023-12-20T07:41:46;12.60;;;12.00;;
15281;SDS011;7742;44.320;19.820;2023-12-20T07:44:13;13.60;;;12.90;;
15281;SDS011;7742;44.320;19.820;2023-12-20T07:46:40;13.40;;;12.80;;
15281;SDS011;7742;44.320;19.820;2023-12-20T07:49:08;16.27;;;15.27;;
15281;SDS011;7742;44.320;19.820;2023-12-20T07:51:35;19.30;;;18.10;;
15281;SDS011;7742;44.320;19.820;2023-12-20T07:54:02;18.97;;;17.77;;
15281;SDS011;7742;44.320;19.820;2023-12-20T07:56:30;19.40;;;18.00;;
15281;SDS011;7742;44.320;19.820;2023-12-20T07:58:58;15.03;;;14.20;;
15281;SDS011;7742;44.320;19.820;2023-12-20T08:01:26;15.17;;;14.37;;
15281;SDS011;7742;44.320;19.820;2023-12-20T08:03:53;18.80;;;17.70;;
15281;SDS011;7742;44.320;19.820;2023-12-20T08:06:21;13.30;;;12.60;;
15281;SDS011;7742;44.320;19.820;2023-12-20T08:08:48;12.87;;;12.17;;
15281;SDS011;7742;44.320;19.820;2023-12-20T08:11:14;13.20;;;12.50;;
15281;SDS011;7742;44.320;19.820;2023-12-20T08:13:41;12.30;;;11.70;;
15281;SDS011;7742;44.320;19.820;2023-12-20T08:16:10;11.90;;;11.30;;
15281;SDS011;7742;44.320;19.820;2023-12-20T08:18:38;10.37;;;9.87;;
15281;SDS011;7742;44.320;19.820;2023-12-20T08:21:05;12.17;;;11.57;;
15281;SDS011;7742;44.320;19.820;2023-12-20T08:23:33;11.30;;;10.70;;
15281;SDS011;7742;44.320;19.820;2023-12-20T08:26:03;12.13;;;11.43;;
15281;SDS011;7742;44.320;19.820;2023-12-20T08:28:30;12.60;;;12.00;;
15281;SDS011;7742;44.320;19.820;2023-12-20T08:30:56;13.73;;;13.00;;
15281;SDS011;7742;44.320;19.820;2023-12-20T08:33:25;16.17;;;15.07;;
15281;SDS011;7742;44.320;19.820;2023-12-20T08:35:52;14.13;;;13.33;;
15281;SDS011;7742;44.320;19.820;2023-12-20T08:38:19;13.00;;;12.30;;
15281;SDS011;7742;44.320;19.820;2023-12-20T08:40:46;11.53;;;10.83;;
15281;SDS011;7742;44.320;19.820;2023-12-20T08:43:13;12.40;;;11.80;;
15281;SDS011;7742;44.320;19.820;2023-12-20T08:45:40;12.50;;;11.90;;
15281;SDS011;7742;44.320;19.820;2023-12-20T08:48:07;13.10;;;12.43;;
15281;SDS011;7742;44.320;19.820;2023-12-20T08:50:35;17.93;;;16.73;;
15281;SDS011;7742;44.320;19.820;2023-12-20T08:53:04;17.53;;;16.23;;
15281;SDS011;7742;44.320;19.820;2023-12-20T08:55:30;34.83;;;31.23;;
15281;SDS011;7742;44.320;19.820;2023-12-20T08:57:58;31.00;;;27.90;;
15281;SDS011;7742;44.320;19.820;2023-12-20T09:00:25;22.33;;;20.43;;
15281;SDS011;7742;44.320;19.820;2023-12-20T09:02:53;19.53;;;18.03;;
15281;SDS011;7742;44.320;19.820;2023-12-20T09:05:19;15.00;;;14.00;;
15281;SDS011;7742;44.320;19.820;2023-12-20T09:07:48;27.67;;;25.27;;
15281;SDS011;7742;44.320;19.820;2023-12-20T09:10:15;37.03;;;33.40;;
15281;SDS011;7742;44.320;19.820;2023-12-20T09:12:47;38.77;;;35.07;;
15281;SDS011;7742;44.320;19.820;2023-12-20T09:15:14;39.43;;;35.40;;
15281;SDS011;7742;44.320;19.820;2023-12-20T09:17:40;29.17;;;26.53;;
15281;SDS011;7742;44.320;19.820;2023-12-20T09:20:09;36.47;;;32.83;;
15281;SDS011;7742;44.320;19.820;2023-12-20T09:22:36;32.93;;;29.93;;
15281;SDS011;7742;44.320;19.820;2023-12-20T09:25:05;40.63;;;36.40;;
15281;SDS011;7742;44.320;19.820;2023-12-20T09:27:32;18.40;;;17.03;;
15281;SDS011;7742;44.320;19.820;2023-12-20T09:29:59;31.47;;;28.50;;
15281;SDS011;7742;44.320;19.820;2023-12-20T09:32:25;29.47;;;26.67;;
15281;SDS011;7742;44.320;19.820;2023-12-20T09:34:52;27.50;;;25.10;;
15281;SDS011;7742;44.320;19.820;2023-12-20T09:37:19;29.17;;;26.47;;
15281;SDS011;7742;44.320;19.820;2023-12-20T09:39:46;33.27;;;30.27;;
15281;SDS011;7742;44.320;19.820;2023-12-20T09:42:15;28.67;;;26.03;;
15281;SDS011;7742;44.320;19.820;2023-12-20T09:44:43;24.63;;;22.53;;
15281;SDS011;7742;44.320;19.820;2023-12-20T09:47:10;21.93;;;20.17;;
15281;SDS011;7742;44.320;19.820;2023-12-20T09:49:37;22.20;;;20.43;;
15281;SDS011;7742;44.320;19.820;2023-12-20T09:52:04;19.53;;;18.13;;
15281;SDS011;7742;44.320;19.820;2023-12-20T09:54:33;24.17;;;22.27;;
15281;SDS011;7742;44.320;19.820;2023-12-20T09:57:00;25.07;;;23.17;;
15281;SDS011;7742;44.320;19.820;2023-12-20T09:59:28;21.43;;;19.80;;
15281;SDS011;7742;44.320;19.820;2023-12-20T10:01:55;15.90;;;14.77;;
15281;SDS011;7742;44.320;19.820;2023-12-20T10:04:23;20.63;;;19.13;;
15281;SDS011;7742;44.320;19.820;2023-12-20T10:06:51;21.90;;;20.17;;
15281;SDS011;7742;44.320;19.820;2023-12-20T10:09:17;21.27;;;19.67;;
15281;SDS011;7742;44.320;19.820;2023-12-20T10:11:44;24.70;;;22.80;;
15281;SDS011;7742;44.320;19.820;2023-12-20T10:14:11;26.00;;;23.90;;
15281;SDS011;7742;44.320;19.820;2023-12-20T10:16:41;21.33;;;19.57;;
15281;SDS011;7742;44.320;19.820;2023-12-20T10:19:08;18.37;;;16.87;;
15281;SDS011;7742;44.320;19.820;2023-12-20T10:21:34;17.10;;;15.90;;
15281;SDS011;7742;44.320;19.820;2023-12-20T10:24:01;19.60;;;18.10;;
15281;SDS011;7742;44.320;19.820;2023-12-20T10:26:28;16.33;;;15.13;;
15281;SDS011;7742;44.320;19.820;2023-12-20T10:28:55;16.03;;;14.93;;
15281;SDS011;7742;44.320;19.820;2023-12-20T10:31:26;15.00;;;14.00;;
15281;SDS011;7742;44.320;19.820;2023-12-20T10:33:55;16.57;;;15.37;;
15281;SDS011;7742;44.320;19.820;2023-12-20T10:36:22;15.90;;;14.90;;
15281;SDS011;7742;44.320;19.820;2023-12-20T10:38:51;17.20;;;16.10;;
15281;SDS011;7742;44.320;19.820;2023-12-20T10:41:19;17.40;;;16.20;;
15281;SDS011;7742;44.320;19.820;2023-12-20T10:43:48;17.10;;;16.00;;
15281;SDS011;7742;44.320;19.820;2023-12-20T10:46:15;17.47;;;16.27;;
15281;SDS011;7742;44.320;19.820;2023-12-20T10:48:44;19.50;;;18.00;;
15281;SDS011;7742;44.320;19.820;2023-12-20T10:51:13;19.30;;;18.03;;
15281;SDS011;7742;44.320;19.820;2023-12-20T10:53:40;16.53;;;15.43;;
15281;SDS011;7742;44.320;19.820;2023-12-20T10:56:08;16.63;;;15.43;;
15281;SDS011;7742;44.320;19.820;2023-12-20T10:58:39;20.70;;;19.33;;
15281;SDS011;7742;44.320;19.820;2023-12-20T11:01:07;32.20;;;29.57;;
15281;SDS011;7742;44.320;19.820;2023-12-20T11:03:35;35.07;;;32.17;;
15281;SDS011;7742;44.320;19.820;2023-12-20T11:06:03;18.70;;;17.33;;
15281;SDS011;7742;44.320;19.820;2023-12-20T11:08:33;18.33;;;17.03;;
15281;SDS011;7742;44.320;19.820;2023-12-20T11:11:03;19.20;;;17.83;;
15281;SDS011;7742;44.320;19.820;2023-12-20T11:13:32;19.17;;;17.87;;
15281;SDS011;7742;44.320;19.820;2023-12-20T11:16:01;19.00;;;17.60;;
15281;SDS011;7742;44.320;19.820;2023-12-20T11:18:28;20.23;;;18.73;;
15281;SDS011;7742;44.320;19.820;2023-12-20T11:20:56;21.80;;;20.10;;
15281;SDS011;7742;44.320;19.820;2023-12-20T11:23:27;23.53;;;21.70;;
15281;SDS011;7742;44.320;19.820;2023-12-20T11:25:56;23.93;;;22.10;;
15281;SDS011;7742;44.320;19.820;2023-12-20T11:28:24;23.43;;;21.63;;
15281;SDS011;7742;44.320;19.820;2023-12-20T11:30:51;23.23;;;21.43;;
15281;SDS011;7742;44.320;19.820;2023-12-20T11:33:21;24.23;;;22.23;;
15281;SDS011;7742;44.320;19.820;2023-12-20T11:35:48;23.27;;;21.40;;
15281;SDS011;7742;44.320;19.820;2023-12-20T11:38:15;21.57;;;19.80;;
15281;SDS011;7742;44.320;19.820;2023-12-20T11:40:42;22.17;;;20.47;;
15281;SDS011;7742;44.320;19.820;2023-12-20T11:43:10;22.03;;;20.30;;
15281;SDS011;7742;44.320;19.820;2023-12-20T11:45:37;21.57;;;19.87;;
15281;SDS011;7742;44.320;19.820;2023-12-20T11:48:15;22.30;;;20.60;;
15281;SDS011;7742;44.320;19.820;2023-12-20T11:50:42;20.87;;;19.33;;
15281;SDS011;7742;44.320;19.820;2023-12-20T11:53:10;21.00;;;19.40;;
15281;SDS011;7742;44.320;19.820;2023-12-20T11:55:37;21.03;;;19.53;;
15281;SDS011;7742;44.320;19.820;2023-12-20T11:58:04;24.27;;;22.30;;
15281;SDS011;7742;44.320;19.820;2023-12-20T12:00:32;23.30;;;21.50;;
15281;SDS011;7742;44.320;19.820;2023-12-20T12:02:59;22.70;;;20.83;;
15281;SDS011;7742;44.320;19.820;2023-12-20T12:05:28;22.43;;;20.67;;
15281;SDS011;7742;44.320;19.820;2023-12-20T12:07:55;23.73;;;21.87;;
15281;SDS011;7742;44.320;19.820;2023-12-20T12:10:22;22.70;;;20.90;;
15281;SDS011;7742;44.320;19.820;2023-12-20T12:12:49;22.40;;;20.70;;
15281;SDS011;7742;44.320;19.820;2023-12-20T12:15:16;24.03;;;22.23;;
15281;SDS011;7742;44.320;19.820;2023-12-20T12:17:44;25.60;;;23.50;;
15281;SDS011;7742;44.320;19.820;2023-12-20T12:20:19;55.37;;;49.97;;
15281;SDS011;7742;44.320;19.820;2023-12-20T12:22:46;65.93;;;59.50;;
15281;SDS011;7742;44.320;19.820;2023-12-20T12:25:23;69.97;;;63.00;;
15281;SDS011;7742;44.320;19.820;2023-12-20T12:27:50;73.70;;;66.20;;
15281;SDS011;7742;44.320;19.820;2023-12-20T12:30:17;80.13;;;72.23;;
15281;SDS011;7742;44.320;19.820;2023-12-20T12:32:46;90.90;;;81.60;;
15281;SDS011;7742;44.320;19.820;2023-12-20T12:35:13;93.23;;;83.67;;
15281;SDS011;7742;44.320;19.820;2023-12-20T12:37:40;98.07;;;87.83;;
15281;SDS011;7742;44.320;19.820;2023-12-20T12:40:09;92.30;;;82.90;;
15281;SDS011;7742;44.320;19.820;2023-12-20T12:42:36;96.00;;;85.97;;
15281;SDS011;7742;44.320;19.820;2023-12-20T12:45:03;90.60;;;81.40;;
15281;SDS011;7742;44.320;19.820;2023-12-20T12:47:30;91.83;;;82.50;;
15281;SDS011;7742;44.320;19.820;2023-12-20T12:49:59;91.50;;;81.63;;
15281;SDS011;7742;44.320;19.820;2023-12-20T12:52:26;87.50;;;78.20;;
15281;SDS011;7742;44.320;19.820;2023-12-20T12:54:53;81.13;;;72.60;;
15281;SDS011;7742;44.320;19.820;2023-12-20T12:57:20;78.73;;;70.80;;
15281;SDS011;7742;44.320;19.820;2023-12-20T12:59:47;78.53;;;70.13;;
15281;SDS011;7742;44.320;19.820;2023-12-20T13:02:14;76.50;;;68.43;;
15281;SDS011;7742;44.320;19.820;2023-12-20T13:04:41;77.00;;;69.27;;
15281;SDS011;7742;44.320;19.820;2023-12-20T13:07:09;74.80;;;66.93;;
15281;SDS011;7742;44.320;19.820;2023-12-20T13:09:37;72.33;;;64.73;;
15281;SDS011;7742;44.320;19.820;2023-12-20T13:12:04;65.23;;;58.43;;
15281;SDS011;7742;44.320;19.820;2023-12-20T13:14:31;57.83;;;52.20;;
15281;SDS011;7742;44.320;19.820;2023-12-20T13:16:58;37.10;;;33.53;;
15281;SDS011;7742;44.320;19.820;2023-12-20T13:19:25;35.80;;;32.37;;
15281;SDS011;7742;44.320;19.820;2023-12-20T13:21:52;37.07;;;33.47;;
15281;SDS011;7742;44.320;19.820;2023-12-20T13:24:21;35.27;;;31.77;;
15281;SDS011;7742;44.320;19.820;2023-12-20T13:26:48;31.13;;;28.07;;
15281;SDS011;7742;44.320;19.820;2023-12-20T13:29:15;27.27;;;24.83;;
15281;SDS011;7742;44.320;19.820;2023-12-20T13:31:42;25.50;;;23.30;;
15281;SDS011;7742;44.320;19.820;2023-12-20T13:34:08;25.63;;;23.33;;
15281;SDS011;7742;44.320;19.820;2023-12-20T13:36:35;23.17;;;21.30;;
15281;SDS011;7742;44.320;19.820;2023-12-20T13:39:03;23.40;;;21.40;;
15281;SDS011;7742;44.320;19.820;2023-12-20T13:41:32;24.10;;;21.90;;
15281;SDS011;7742;44.320;19.820;2023-12-20T13:43:59;25.17;;;23.07;;
15281;SDS011;7742;44.320;19.820;2023-12-20T13:46:26;24.33;;;22.13;;
15281;SDS011;7742;44.320;19.820;2023-12-20T13:48:54;26.33;;;24.03;;
15281;SDS011;7742;44.320;19.820;2023-12-20T13:51:20;26.20;;;23.80;;
15281;SDS011;7742;44.320;19.820;2023-12-20T13:53:47;26.30;;;23.90;;
15281;SDS011;7742;44.320;19.820;2023-12-20T13:56:14;25.80;;;23.70;;
15281;SDS011;7742;44.320;19.820;2023-12-20T13:58:57;27.47;;;25.07;;
15281;SDS011;7742;44.320;19.820;2023-12-20T14:01:24;26.23;;;23.97;;
15281;SDS011;7742;44.320;19.820;2023-12-20T14:03:51;26.60;;;24.10;;
15281;SDS011;7742;44.320;19.820;2023-12-20T14:06:18;26.00;;;23.90;;
15281;SDS011;7742;44.320;19.820;2023-12-20T14:08:45;26.93;;;24.63;;
15281;SDS011;7742;44.320;19.820;2023-12-20T14:11:13;29.80;;;27.20;;
15281;SDS011;7742;44.320;19.820;2023-12-20T14:13:41;26.37;;;24.10;;
15281;SDS011;7742;44.320;19.820;2023-12-20T14:16:10;26.50;;;24.13;;
15281;SDS011;7742;44.320;19.820;2023-12-20T14:18:37;27.67;;;25.17;;
15281;SDS011;7742;44.320;19.820;2023-12-20T14:21:05;27.30;;;24.93;;
15281;SDS011;7742;44.320;19.820;2023-12-20T14:23:32;26.80;;;24.40;;
15281;SDS011;7742;44.320;19.820;2023-12-20T14:26:00;27.90;;;25.30;;
15281;SDS011;7742;44.320;19.820;2023-12-20T14:28:28;28.03;;;25.53;;
15281;SDS011;7742;44.320;19.820;2023-12-20T14:30:55;29.20;;;26.60;;
15281;SDS011;7742;44.320;19.820;2023-12-20T14:33:24;27.40;;;25.10;;
15281;SDS011;7742;44.320;19.820;2023-12-20T14:35:51;29.97;;;27.40;;
15281;SDS011;7742;44.320;19.820;2023-12-20T14:38:18;28.43;;;25.90;;